Portada
METAR-TAF:

METAR-TAF

Aeropuertos :

Aeropuerto de Málaga-Costa del Sol

Málaga, España

latitud: 36-40N, longitud: 004-29W, altitud: 16 m

Observación

El informe se hizo hace 29 minutos, a las 21:30 UTC
Viento 3 kt del noroeste, variando entre oeste-noroeste y norte
Temperatura 16°C
Humedad 72%
Presión 1019 hPa
Visibilidad 10 km o más
sin nubes por debajo de 1500 m y sin presencia de cumulonimbus.

METAR: LEMG 162130Z 32003KT 290V350 CAVOK 16/11 Q1019 NOSIG

Hora: 23:59 (21:59 UTC)

Pronóstico

El informe se hizo hace 4 horas y 59 minutos, a las 17:00 UTC
Pronóstico válido del 16 a las 18 UTC al 17 a las 18 UTC
Viento 6 kt del este
Visibilidad 10 km o más
sin nubes por debajo de 1500 m y sin presencia de cumulonimbus.
Evolucionando progresivamente
del 16 a las 19 UTC al 16 a las 21 UTC
Viento 7 kt del oeste-noroeste

TAF: LEMG 161700Z 1618/1718 10006KT CAVOK TX27/1715Z TN13/1706Z BECMG 1619/1621 29007KT

Observaciones y pronósticos meteorológicos de más de 4000 aeropuertos (mensajes METAR y TAF).

Los puntos amarillos y rojos representan las estaciones disponibles.

Ponga el ratón en el punto deseado para ver el nombre de la estación.

Haga clic para ver las observaciones y los pronósticos meteorológicos.

Para cambiar el mapa : haga clic en los botones verdes con una cruz de color negro para hacer un zoom, en el botón verde con un guión para alejar o en las flechas verdes para mapas adyacentes.


METAR-TAF: